createdAt,value
2023-03-19T00:05:08.126Z,4166.2
2023-03-19T00:10:48.107Z,4164.6
2023-03-19T00:16:32.927Z,4163
2023-03-19T00:22:07.859Z,4163.5
2023-03-19T00:27:59.949Z,4166.1
2023-03-19T00:33:55.584Z,4162
2023-03-19T00:39:33.089Z,4164.7
2023-03-19T00:45:12.299Z,4162.7
2023-03-19T00:50:56.126Z,4162.4
2023-03-19T00:56:34.010Z,4163.2
2023-03-19T01:02:10.685Z,4160.5
2023-03-19T01:07:54.682Z,4160.2
2023-03-19T01:13:30.042Z,4158.2
2023-03-19T01:19:08.125Z,4158.5
2023-03-19T01:24:46.884Z,4161.4
2023-03-19T01:30:29.198Z,4159.5
2023-03-19T01:36:34.731Z,4159.5
2023-03-19T01:42:12.665Z,4156
2023-03-19T01:48:34.932Z,4158.7
2023-03-19T01:54:13.593Z,4157.2
2023-03-19T01:59:51.739Z,4157.5
2023-03-19T02:05:27.837Z,4157.7
2023-03-19T02:11:27.113Z,4157.4
2023-03-19T02:17:15.934Z,4155
2023-03-19T02:22:51.331Z,4154.5
2023-03-19T02:28:27.083Z,4156
2023-03-19T02:34:06.704Z,4155.3
2023-03-19T02:40:02.809Z,4157.2
2023-03-19T02:45:45.968Z,4155.2
2023-03-19T02:51:53.550Z,4155
2023-03-19T02:57:29.876Z,4153
2023-03-19T03:03:16.823Z,4154.5
2023-03-19T03:08:52.139Z,4153.3
2023-03-19T03:14:48.454Z,4152.3
2023-03-19T03:20:29.581Z,4152
2023-03-19T03:26:04.596Z,4152.5
2023-03-19T03:31:42.157Z,4152.5
2023-03-19T03:37:20.653Z,4151.5
2023-03-19T03:42:58.139Z,4151.2
2023-03-19T03:48:33.311Z,4150.8
2023-03-19T03:54:09.531Z,4150.6
2023-03-19T03:59:52.747Z,4149.6
2023-03-19T04:05:53.526Z,4153.5
2023-03-19T04:11:35.913Z,4149.1
2023-03-19T04:17:49.022Z,4150.5
2023-03-19T04:23:32.896Z,4148
2023-03-19T04:29:08.456Z,4150.5
2023-03-19T04:35:40.302Z,4150
2023-03-19T04:41:15.640Z,4147.1
2023-03-19T04:46:56.309Z,4148.8
2023-03-19T04:52:52.992Z,4148.3
2023-03-19T04:58:37.640Z,4149.1
2023-03-19T05:04:14.793Z,4147.5
2023-03-19T05:09:50.489Z,4149
2023-03-19T05:15:25.964Z,4147.6
2023-03-19T05:21:01.927Z,4145.3
2023-03-19T05:26:38.118Z,4145.5
2023-03-19T05:32:13.103Z,4146
2023-03-19T05:38:26.302Z,4146
2023-03-19T05:44:10.608Z,4145.5
2023-03-19T05:50:37.117Z,4147.1
2023-03-19T05:56:15.672Z,4147.6
2023-03-19T06:01:54.171Z,4145.5
2023-03-19T06:07:32.590Z,4146.1
2023-03-19T06:13:10.925Z,4143.6
2023-03-19T06:18:46.985Z,4144.5
2023-03-19T06:24:27.110Z,4143.3
2023-03-19T06:30:11.769Z,4144.8
2023-03-19T06:35:47.537Z,4144.5
2023-03-19T06:41:23.314Z,4143.1
2023-03-19T06:47:02.002Z,4143.8
2023-03-19T06:52:45.242Z,4142.4
2023-03-19T06:58:30.497Z,4147.1
2023-03-19T07:04:06.333Z,4148.8
2023-03-19T07:09:51.704Z,4142.8
2023-03-19T07:15:49.197Z,4143.4
2023-03-19T07:21:55.036Z,4152.3
2023-03-19T07:27:37.054Z,4154
2023-03-19T07:33:14.163Z,4179
2023-03-19T07:38:52.495Z,4192
2023-03-19T07:44:43.109Z,4168.6
2023-03-19T07:50:29.793Z,4157.2
2023-03-19T07:56:05.102Z,4172.8
2023-03-19T08:01:43.322Z,4163.5
2023-03-19T08:07:23.657Z,4185.3
2023-03-19T08:12:59.386Z,4161.7
2023-03-19T08:18:37.422Z,4169.4
2023-03-19T08:24:30.664Z,4191.2
2023-03-19T08:30:07.112Z,4201.4
2023-03-19T08:35:49.768Z,4188.8
2023-03-19T08:41:28.012Z,4205.8
2023-03-19T08:47:03.948Z,4175.6
2023-03-19T08:52:40.104Z,4180.5
2023-03-19T08:58:15.518Z,4204.6
2023-03-19T09:03:51.471Z,4181.8
2023-03-19T09:09:28.481Z,4213.1
2023-03-19T09:15:04.196Z,4196
2023-03-19T09:20:40.241Z,4206.3
2023-03-19T09:26:24.422Z,4215.1
2023-03-19T09:32:07.674Z,4197.4
2023-03-19T09:37:46.358Z,4211.6
2023-03-19T09:43:25.863Z,4194.2
2023-03-19T09:49:13.608Z,4198.9
2023-03-19T09:54:53.075Z,4179
2023-03-19T10:00:27.871Z,4185.8
2023-03-19T10:06:03.326Z,4182.6
2023-03-19T10:11:43.958Z,4195.4
2023-03-19T10:17:27.854Z,4217.3
2023-03-19T10:23:04.611Z,4203.1
2023-03-19T10:28:42.583Z,4210.3
2023-03-19T10:34:26.353Z,4221.8
2023-03-19T10:40:02.013Z,4221
2023-03-19T10:45:49.911Z,4216.3
2023-03-19T10:51:26.216Z,4225.2
2023-03-19T10:57:14.282Z,4220
2023-03-19T11:02:57.732Z,4223.5
2023-03-19T11:08:48.830Z,4195.4
2023-03-19T11:14:38.323Z,4222.3
2023-03-19T11:20:14.254Z,4205.1
2023-03-19T11:25:50.651Z,4219.8
2023-03-19T11:31:34.232Z,4219.8
2023-03-19T11:37:14.532Z,4214.3
2023-03-19T11:42:52.539Z,4223
2023-03-19T11:48:49.115Z,4214.1
2023-03-19T11:54:46.487Z,4223.8
2023-03-19T12:00:29.805Z,4223.2
2023-03-19T12:06:11.278Z,4216.1
2023-03-19T12:11:47.514Z,4214.5
2023-03-19T12:17:43.988Z,4218
2023-03-19T12:23:23.161Z,4217
2023-03-19T12:28:59.665Z,4213.8
2023-03-19T12:34:49.898Z,4231.9
2023-03-19T12:40:37.976Z,4216.3
2023-03-19T12:46:14.063Z,4224
2023-03-19T12:52:11.565Z,4227.9
2023-03-19T12:57:55.716Z,4214.8
2023-03-19T13:03:31.115Z,4215.5
2023-03-19T13:09:11.624Z,4209.1
2023-03-19T13:14:50.973Z,4220.3
2023-03-19T13:20:26.839Z,4216.1
2023-03-19T13:26:25.328Z,4226.4
2023-03-19T13:32:09.434Z,4209.6
2023-03-19T13:37:59.346Z,4208.4
2023-03-19T13:43:34.918Z,4214.3
2023-03-19T13:49:10.215Z,4213
2023-03-19T13:55:06.786Z,4217.8
2023-03-19T14:00:46.649Z,4215.3
2023-03-19T14:06:23.376Z,4210.6
2023-03-19T14:11:58.665Z,4211
2023-03-19T14:18:15.648Z,4225
2023-03-19T14:23:56.347Z,4210.1
2023-03-19T14:29:33.502Z,4211
2023-03-19T14:35:34.672Z,4227
2023-03-19T14:41:14.146Z,4215
2023-03-19T14:47:13.884Z,4219.8
2023-03-19T14:52:48.777Z,4216.1
2023-03-19T14:58:27.920Z,4221.5
2023-03-19T15:04:08.650Z,4222.5
2023-03-19T15:09:50.697Z,4215.1
2023-03-19T15:15:26.842Z,4229.9
2023-03-19T15:21:03.593Z,4218
2023-03-19T15:26:38.659Z,4220.5
2023-03-19T15:32:19.808Z,4218.2
2023-03-19T15:37:55.374Z,4211.5
2023-03-19T15:43:30.447Z,4211.1
2023-03-19T15:49:07.398Z,4213.1
2023-03-19T15:55:04.223Z,4216.6
2023-03-19T16:00:43.109Z,4209.4
2023-03-19T16:06:19.807Z,4216.5
2023-03-19T16:11:57.853Z,4214
2023-03-19T16:17:57.707Z,4210.4
2023-03-19T16:23:57.306Z,4203.6
2023-03-19T16:29:50.879Z,4195.4
2023-03-19T16:35:30.880Z,4197.7
2023-03-19T16:41:15.518Z,4204.1
2023-03-19T16:46:52.804Z,4206.3
2023-03-19T16:52:34.714Z,4200.6
2023-03-19T16:58:11.688Z,4199.6
2023-03-19T17:03:54.317Z,4198.7
2023-03-19T17:09:30.588Z,4196.9
2023-03-19T17:15:08.430Z,4198.7
2023-03-19T17:20:44.408Z,4196
2023-03-19T17:26:30.992Z,4193
2023-03-19T17:32:07.632Z,4191.9
2023-03-19T17:37:51.254Z,4188.7
2023-03-19T17:43:26.086Z,4186
2023-03-19T17:49:10.181Z,4189
2023-03-19T17:55:07.041Z,4182.8
2023-03-19T18:00:41.956Z,4186.8
2023-03-19T18:06:17.748Z,4182.6
2023-03-19T18:11:53.989Z,4185.2
2023-03-19T18:17:29.006Z,4183.3
2023-03-19T18:23:03.968Z,4184
2023-03-19T18:28:40.765Z,4183.5
2023-03-19T18:34:15.873Z,4182.5
2023-03-19T18:39:51.139Z,4178.1
2023-03-19T18:45:40.433Z,4179.6
2023-03-19T18:51:19.159Z,4180.3
2023-03-19T18:56:55.557Z,4178.5
2023-03-19T19:02:39.561Z,4181.1
2023-03-19T19:08:38.522Z,4177.5
2023-03-19T19:14:13.836Z,4175.3
2023-03-19T19:20:12.197Z,4174.1
2023-03-19T19:25:50.901Z,4172.4
2023-03-19T19:31:27.851Z,4175.1
2023-03-19T19:37:03.166Z,4175.3
2023-03-19T19:42:39.302Z,4174.4
2023-03-19T19:48:15.300Z,4173.4
2023-03-19T19:53:54.628Z,4170.6
2023-03-19T19:59:38.296Z,4175.3
2023-03-19T20:05:14.709Z,4171.9
2023-03-19T20:10:49.816Z,4172.1
2023-03-19T20:16:26.741Z,4172.6
2023-03-19T20:22:02.036Z,4173.1
2023-03-19T20:27:53.830Z,4174.6
2023-03-19T20:33:33.492Z,4171.4
2023-03-19T20:39:11.702Z,4171.8
2023-03-19T20:44:52.687Z,4171.1
2023-03-19T20:50:29.503Z,4169.9
2023-03-19T20:56:04.912Z,4171.1
2023-03-19T21:01:41.051Z,4168.9
2023-03-19T21:07:16.779Z,4169.9
2023-03-19T21:12:52.075Z,4169.6
2023-03-19T21:18:34.365Z,4170.6
2023-03-19T21:24:09.676Z,4169.1
2023-03-19T21:29:45.844Z,4170.1
2023-03-19T21:35:42.291Z,4167.9
2023-03-19T21:41:22.799Z,4169.4
2023-03-19T21:47:46.525Z,4166.9
2023-03-19T21:53:25.625Z,4166.1
2023-03-19T21:59:01.114Z,4166.2
2023-03-19T22:04:36.307Z,4166.6
2023-03-19T22:10:17.263Z,4167.2
2023-03-19T22:15:52.463Z,4168.4
2023-03-19T22:21:29.117Z,4167.6
2023-03-19T22:27:04.532Z,4163.7
2023-03-19T22:32:41.323Z,4161.9
2023-03-19T22:38:17.066Z,4161.7
2023-03-19T22:43:54.045Z,4164.1
2023-03-19T22:49:37.938Z,4160.5
2023-03-19T22:55:17.202Z,4161.4
2023-03-19T23:01:01.582Z,4160.7
2023-03-19T23:06:52.166Z,4163.7
2023-03-19T23:12:35.179Z,4161.9
2023-03-19T23:18:13.482Z,4160.2
2023-03-19T23:23:53.964Z,4158.7
2023-03-19T23:29:37.121Z,4158.2
2023-03-19T23:35:15.872Z,4157.5
2023-03-19T23:40:57.409Z,4156.5
2023-03-19T23:46:33.795Z,4157.9
2023-03-19T23:52:20.999Z,4157
2023-03-19T23:57:59.494Z,4156.5
